Time;durP1;ratioP1;P1;durP2;ratioP2;P2;SDS_P1;SDS_P2;PMS_P1;PMS_P2;Temp;Humidity;BMP_temperature;BMP_pressure;BME280_temperature;BME280_humidity;BME280_pressure;Samples;Min_cycle;Max_cycle;Signal;HPM_P1;HPM_P2
2020/12/10 00:00:21;;;;;;;;;;;;;;;;;;5053782;28;19920;-76
2020/12/10 00:02:47;;;;;;;;;;;;;;;;;;5053980;28;19908;-75
2020/12/10 00:05:13;;;;;;;;;;;;;;;;;;5054144;28;20296;-76
2020/12/10 00:07:39;;;;;;;;;;;;;;;;;;5053696;28;19951;-76
2020/12/10 00:10:05;;;;;;;;;;;;;;;;;;5053522;28;19909;-75
2020/12/10 00:12:31;;;;;;;;;;;;;;;;;;5053539;28;20004;-76
2020/12/10 00:14:57;;;;;;;;;;;;;;;;;;5053594;28;19941;-76
2020/12/10 00:17:23;;;;;;;;;;;;;;;;;;5053440;28;19956;-76
2020/12/10 00:19:49;;;;;;;;;;;;;;;;;;5053466;28;19908;-76
2020/12/10 00:22:15;;;;;;;;;;;;;;;;;;5046571;28;20006;-76
2020/12/10 00:24:41;;;;;;;;;;;;;;;;;;5044960;28;19909;-76
2020/12/10 00:27:07;;;;;;;;;;;;;;;;;;5053347;28;19909;-76
2020/12/10 00:29:33;;;;;;;;;;;;;;;;;;5040097;28;20279;-75
2020/12/10 00:31:59;;;;;;;;;;;;;;;;;;5030827;28;19952;-76
2020/12/10 00:34:25;;;;;;;;;;;;;;;;;;5038683;28;19978;-76
2020/12/10 00:36:51;;;;;;;;;;;;;;;;;;5035673;28;20412;-75
2020/12/10 00:39:17;;;;;;;;;;;;;;;;;;5033155;28;19915;-75
2020/12/10 00:41:43;;;;;;;;;;;;;;;;;;5033455;28;19956;-75
2020/12/10 00:44:09;;;;;;;;;;;;;;;;;;5033383;28;19909;-76
2020/12/10 00:46:35;;;;;;;;;;;;;;;;;;5033470;28;19909;-76
2020/12/10 00:49:01;;;;;;;;;;;;;;;;;;5032894;28;19913;-76
2020/12/10 00:51:27;;;;;;;;;;;;;;;;;;5032930;28;20410;-76
2020/12/10 00:53:53;;;;;;;;;;;;;;;;;;5041080;28;19909;-75
2020/12/10 00:56:18;;;;;;;;;;;;;;;;;;5051962;28;19952;-76
2020/12/10 00:58:45;;;;;;;;;;;;;;;;;;5052517;28;19986;-75
2020/12/10 01:01:11;;;;;;;;;;;;;;;;;;5052683;28;19992;-76
2020/12/10 01:03:36;;;;;;;;;;;;;;;;;;5052836;28;20058;-75
2020/12/10 01:06:02;;;;;;;;;;;;;;;;;;5052749;28;19948;-76
2020/12/10 01:08:28;;;;;;;;;;;;;;;;;;5052132;28;20283;-76
2020/12/10 01:10:54;;;;;;;;;;;;;;;;;;5052492;28;20363;-76
2020/12/10 01:13:20;;;;;;;;;;;;;;;;;;5052698;28;19913;-76
2020/12/10 01:15:46;;;;;;;;;;;;;;;;;;5054024;28;19909;-75
2020/12/10 01:18:12;;;;;;;;;;;;;;;;;;5052550;28;19909;-76
2020/12/10 01:20:38;;;;;;;;;;;;;;;;;;5052451;28;19923;-75
2020/12/10 01:23:04;;;;;;;;;;;;;;;;;;5045876;28;19912;-75
2020/12/10 01:25:30;;;;;;;;;;;;;;;;;;5046296;28;19915;-75
2020/12/10 01:27:56;;;;;;;;;;;;;;;;;;5052294;28;19916;-75
2020/12/10 01:30:22;;;;;;;;;;;;;;;;;;5052268;28;19909;-75
2020/12/10 01:32:47;;;;;;;;;;;;;;;;;;5052280;28;19909;-75
2020/12/10 01:35:13;;;;;;;;;;;;;;;;;;5052264;28;19916;-75
2020/12/10 01:37:39;;;;;;;;;;;;;;;;;;5052025;28;19975;-75
2020/12/10 01:40:05;;;;;;;;;;;;;;;;;;5052403;28;19959;-75
2020/12/10 01:42:31;;;;;;;;;;;;;;;;;;5052021;28;19912;-75
2020/12/10 01:44:57;;;;;;;;;;;;;;;;;;5051849;28;20325;-75
2020/12/10 01:47:23;;;;;;;;;;;;;;;;;;5051881;28;19917;-75
2020/12/10 01:49:50;;;;;;;;;;;;;;;;;;5051951;28;20453;-74
2020/12/10 01:52:15;;;;;;;;;;;;;;;;;;5044972;28;19909;-74
2020/12/10 01:54:41;;;;;;;;;;;;;;;;;;5043595;28;19917;-74
2020/12/10 01:57:07;;;;;;;;;;;;;;;;;;5051616;28;19997;-75
2020/12/10 01:59:33;;;;;;;;;;;;;;;;;;5051543;28;20432;-75
2020/12/10 02:01:59;;;;;;;;;;;;;;;;;;5051557;28;19908;-75
2020/12/10 02:04:26;;;;;;;;;;;;;;;;;;5051682;28;20375;-75
2020/12/10 02:06:52;;;;;;;;;;;;;;;;;;5051430;28;19916;-75
2020/12/10 02:11:45;;;;;;;;;;;;;;;;;;5054161;22;19925;-72
2020/12/10 02:14:11;;;;;;;;;;;;;;;;;;5050589;28;19931;-69
2020/12/10 02:16:37;;;;;;;;;;;;;;;;;;5052617;28;19963;-72
2020/12/10 02:19:03;;;;;;;;;;;;;;;;;;5051098;28;20003;-70
2020/12/10 02:21:29;;;;;;;;;;;;;;;;;;5050291;28;19916;-69
2020/12/10 02:23:55;;;;;;;;;;;;;;;;;;5060343;28;19916;-72
2020/12/10 02:26:21;;;;;;;;;;;;;;;;;;5071906;28;19986;-69
2020/12/10 02:28:47;;;;;;;;;;;;;;;;;;5072123;28;19930;-69
2020/12/10 02:31:13;;;;;;;;;;;;;;;;;;5070915;28;19904;-69
2020/12/10 02:33:38;;;;;;;;;;;;;;;;;;5072206;28;19909;-69
2020/12/10 02:36:04;;;;;;;;;;;;;;;;;;5053260;28;19913;-69
2020/12/10 02:38:30;;;;;;;;;;;;;;;;;;5050766;28;19931;-71
2020/12/10 02:40:56;;;;;;;;;;;;;;;;;;5058972;28;20361;-70
2020/12/10 02:43:22;;;;;;;;;;;;;;;;;;5070250;28;19909;-72
2020/12/10 02:45:48;;;;;;;;;;;;;;;;;;5071952;28;19909;-69
2020/12/10 02:48:14;;;;;;;;;;;;;;;;;;5071664;28;20387;-69
2020/12/10 02:50:40;;;;;;;;;;;;;;;;;;5070617;28;20042;-69
2020/12/10 02:53:06;;;;;;;;;;;;;;;;;;5071718;28;19915;-69
2020/12/10 02:55:32;;;;;;;;;;;;;;;;;;5071403;28;19919;-70
2020/12/10 02:57:58;;;;;;;;;;;;;;;;;;5071401;28;19974;-70
2020/12/10 03:00:23;;;;;;;;;;;;;;;;;;5071837;28;19977;-71
2020/12/10 03:02:49;;;;;;;;;;;;;;;;;;5071840;28;19954;-73
2020/12/10 03:05:15;;;;;;;;;;;;;;;;;;5070554;28;19966;-73
2020/12/10 03:07:41;;;;;;;;;;;;;;;;;;5068396;28;20545;-72
2020/12/10 03:10:07;;;;;;;;;;;;;;;;;;5060258;28;20010;-70
2020/12/10 03:12:33;;;;;;;;;;;;;;;;;;5070346;28;19908;-71
2020/12/10 03:14:59;;;;;;;;;;;;;;;;;;5070439;28;20470;-71
2020/12/10 03:17:25;;;;;;;;;;;;;;;;;;5071331;28;19948;-74
2020/12/10 03:19:51;;;;;;;;;;;;;;;;;;5071697;28;19915;-72
2020/12/10 03:22:17;;;;;;;;;;;;;;;;;;5071422;28;19954;-71
2020/12/10 03:24:43;;;;;;;;;;;;;;;;;;5071031;28;19916;-74
2020/12/10 03:27:08;;;;;;;;;;;;;;;;;;5071292;28;19909;-71
2020/12/10 03:29:34;;;;;;;;;;;;;;;;;;5071233;28;19913;-70
2020/12/10 03:32:00;;;;;;;;;;;;;;;;;;5071161;28;19908;-71
2020/12/10 03:34:26;;;;;;;;;;;;;;;;;;5071456;28;19912;-71
2020/12/10 03:36:52;;;;;;;;;;;;;;;;;;5068931;28;20328;-71
2020/12/10 03:39:18;;;;;;;;;;;;;;;;;;5061555;28;20387;-71
2020/12/10 03:41:44;;;;;;;;;;;;;;;;;;5071314;28;20368;-71
2020/12/10 03:44:10;;;;;;;;;;;;;;;;;;5069999;28;19920;-71
2020/12/10 03:46:36;;;;;;;;;;;;;;;;;;5071394;28;20284;-73
2020/12/10 03:49:02;;;;;;;;;;;;;;;;;;5070982;28;19915;-71
2020/12/10 03:51:28;;;;;;;;;;;;;;;;;;5069895;28;19908;-71
2020/12/10 03:53:53;;;;;;;;;;;;;;;;;;5070683;28;19952;-71
2020/12/10 03:56:19;;;;;;;;;;;;;;;;;;5071194;28;19952;-71
2020/12/10 03:58:45;;;;;;;;;;;;;;;;;;5070867;28;19951;-71
2020/12/10 04:01:11;;;;;;;;;;;;;;;;;;5071099;28;19947;-72
2020/12/10 04:03:37;;;;;;;;;;;;;;;;;;5051587;28;19955;-72
2020/12/10 04:06:03;;;;;;;;;;;;;;;;;;5049232;28;20027;-74
2020/12/10 04:08:29;;;;;;;;;;;;;;;;;;5061956;28;19999;-72
2020/12/10 04:10:55;;;;;;;;;;;;;;;;;;5069781;28;20007;-70
2020/12/10 04:13:21;;;;;;;;;;;;;;;;;;5071145;28;19999;-71
2020/12/10 04:15:46;;;;;;;;;;;;;;;;;;5070962;28;19954;-71
2020/12/10 04:18:12;;;;;;;;;;;;;;;;;;5069753;28;20349;-71
2020/12/10 04:20:38;;;;;;;;;;;;;;;;;;5071004;28;19940;-71
2020/12/10 04:23:04;;;;;;;;;;;;;;;;;;5070356;28;20000;-71
2020/12/10 04:25:30;;;;;;;;;;;;;;;;;;5069608;28;19952;-72
2020/12/10 04:27:56;;;;;;;;;;;;;;;;;;5051722;28;19968;-73
2020/12/10 04:30:22;;;;;;;;;;;;;;;;;;5050658;28;19988;-71
2020/12/10 04:32:48;;;;;;;;;;;;;;;;;;5050696;28;20357;-71
2020/12/10 04:35:14;;;;;;;;;;;;;;;;;;5050811;28;19913;-71
2020/12/10 04:37:41;;;;;;;;;;;;;;;;;;5058189;28;19975;-71
2020/12/10 04:40:07;;;;;;;;;;;;;;;;;;5068346;28;19909;-74
2020/12/10 04:42:33;;;;;;;;;;;;;;;;;;5067499;28;20399;-71
2020/12/10 04:44:59;;;;;;;;;;;;;;;;;;5061681;28;19940;-75
2020/12/10 04:47:25;;;;;;;;;;;;;;;;;;5074128;28;19908;-76
2020/12/10 04:49:51;;;;;;;;;;;;;;;;;;5079678;28;19954;-71
2020/12/10 04:52:17;;;;;;;;;;;;;;;;;;5074665;28;19909;-71
2020/12/10 04:54:42;;;;;;;;;;;;;;;;;;5073190;28;20245;-71
2020/12/10 04:57:08;;;;;;;;;;;;;;;;;;5074075;28;19913;-71
2020/12/10 04:59:34;;;;;;;;;;;;;;;;;;5073614;28;19915;-71
2020/12/10 05:02:00;;;;;;;;;;;;;;;;;;5072011;28;19913;-72
2020/12/10 05:04:26;;;;;;;;;;;;;;;;;;5073828;28;19908;-72
2020/12/10 05:06:52;;;;;;;;;;;;;;;;;;5065959;28;20019;-71
2020/12/10 05:09:18;;;;;;;;;;;;;;;;;;5064234;28;19936;-71
2020/12/10 05:11:44;;;;;;;;;;;;;;;;;;5073733;28;19923;-71
2020/12/10 05:14:10;;;;;;;;;;;;;;;;;;5073721;28;19915;-71
2020/12/10 05:16:36;;;;;;;;;;;;;;;;;;5073748;28;19960;-71
2020/12/10 05:19:02;;;;;;;;;;;;;;;;;;5073353;28;19951;-71
2020/12/10 05:21:28;;;;;;;;;;;;;;;;;;5073379;28;19962;-71
2020/12/10 05:23:54;;;;;;;;;;;;;;;;;;5073270;28;19974;-71
2020/12/10 05:26:20;;;;;;;;;;;;;;;;;;5073781;28;19915;-71
2020/12/10 05:28:46;;;;;;;;;;;;;;;;;;5059675;28;20410;-71
2020/12/10 05:31:11;;;;;;;;;;;;;;;;;;5055047;28;19913;-73
2020/12/10 05:33:37;;;;;;;;;;;;;;;;;;5053327;28;20384;-71
2020/12/10 05:36:03;;;;;;;;;;;;;;;;;;5053185;28;20421;-72
2020/12/10 05:38:29;;;;;;;;;;;;;;;;;;5060148;28;19940;-71
2020/12/10 05:40:55;;;;;;;;;;;;;;;;;;5069265;28;19968;-72
2020/12/10 05:43:21;;;;;;;;;;;;;;;;;;5073076;28;19948;-71
2020/12/10 05:45:47;;;;;;;;;;;;;;;;;;5072237;28;19940;-71
2020/12/10 05:48:13;;;;;;;;;;;;;;;;;;5071692;28;19935;-71
2020/12/10 05:50:39;;;;;;;;;;;;;;;;;;5073098;28;19966;-72
2020/12/10 05:53:05;;;;;;;;;;;;;;;;;;5071652;28;19908;-74
2020/12/10 05:55:31;;;;;;;;;;;;;;;;;;5072303;28;19908;-71
2020/12/10 05:57:57;;;;;;;;;;;;;;;;;;5072719;28;19971;-71
2020/12/10 06:00:22;;;;;;;;;;;;;;;;;;5073122;28;19909;-71
2020/12/10 06:02:48;;;;;;;;;;;;;;;;;;5072906;28;19979;-71
2020/12/10 06:05:14;;;;;;;;;;;;;;;;;;5071363;28;19913;-71
2020/12/10 06:07:40;;;;;;;;;;;;;;;;;;5063072;28;20284;-71
2020/12/10 06:10:06;;;;;;;;;;;;;;;;;;5068607;28;19917;-71
2020/12/10 06:12:32;;;;;;;;;;;;;;;;;;5072526;28;19981;-72
2020/12/10 06:15:01;;;;;;;;;;;;;;;;;;5068175;28;19908;-74
2020/12/10 06:17:27;;;;;;;;;;;;;;;;;;5042501;28;19913;-71
2020/12/10 06:19:53;;;;;;;;;;;;;;;;;;5046619;28;19916;-71
2020/12/10 06:22:19;;;;;;;;;;;;;;;;;;5050710;28;20483;-71
2020/12/10 06:24:45;;;;;;;;;;;;;;;;;;5052414;28;19909;-71
2020/12/10 06:27:11;;;;;;;;;;;;;;;;;;5041309;28;19955;-72
2020/12/10 06:29:37;;;;;;;;;;;;;;;;;;5046943;28;19931;-71
2020/12/10 06:32:03;;;;;;;;;;;;;;;;;;5052370;28;20364;-70
2020/12/10 06:34:29;;;;;;;;;;;;;;;;;;5036520;28;19967;-71
2020/12/10 06:36:55;;;;;;;;;;;;;;;;;;5049280;28;20362;-70
2020/12/10 06:39:20;;;;;;;;;;;;;;;;;;5063675;28;19951;-71
2020/12/10 06:41:46;;;;;;;;;;;;;;;;;;5051185;28;19949;-70
2020/12/10 06:44:12;;;;;;;;;;;;;;;;;;5046497;28;19960;-71
2020/12/10 06:46:38;;;;;;;;;;;;;;;;;;5045906;28;20412;-70
2020/12/10 06:49:04;;;;;;;;;;;;;;;;;;5058297;28;20035;-70
2020/12/10 06:51:30;;;;;;;;;;;;;;;;;;5051672;28;19967;-70
2020/12/10 06:53:56;;;;;;;;;;;;;;;;;;5048976;28;20630;-70
2020/12/10 06:56:22;;;;;;;;;;;;;;;;;;5045754;28;20014;-68
2020/12/10 06:58:49;;;;;;;;;;;;;;;;;;5049666;28;19992;-69
2020/12/10 07:01:15;;;;;;;;;;;;;;;;;;5052263;28;19909;-69
2020/12/10 07:03:41;;;;;;;;;;;;;;;;;;5049965;28;20276;-70
2020/12/10 07:06:07;;;;;;;;;;;;;;;;;;5046311;28;19979;-70
2020/12/10 07:08:32;;;;;;;;;;;;;;;;;;5060326;28;20048;-71
2020/12/10 07:10:58;;;;;;;;;;;;;;;;;;5049588;28;20016;-70
2020/12/10 07:13:24;;;;;;;;;;;;;;;;;;5050790;28;19948;-70
2020/12/10 07:15:50;;;;;;;;;;;;;;;;;;5050377;28;19912;-70
2020/12/10 07:18:16;;;;;;;;;;;;;;;;;;5049014;28;20352;-69
2020/12/10 07:20:42;;;;;;;;;;;;;;;;;;5051162;28;20004;-69
2020/12/10 07:23:08;;;;;;;;;;;;;;;;;;5049561;28;19948;-69
2020/12/10 07:25:34;;;;;;;;;;;;;;;;;;5051256;28;20419;-70
2020/12/10 07:28:00;;;;;;;;;;;;;;;;;;5051091;28;19909;-70
2020/12/10 07:30:27;;;;;;;;;;;;;;;;;;5049813;28;20376;-69
2020/12/10 07:32:53;;;;;;;;;;;;;;;;;;5051154;28;19909;-70
2020/12/10 07:35:19;;;;;;;;;;;;;;;;;;5051162;28;20261;-70
2020/12/10 07:37:45;;;;;;;;;;;;;;;;;;5056613;28;19958;-70
2020/12/10 07:40:11;;;;;;;;;;;;;;;;;;5059106;28;19973;-69
2020/12/10 07:42:37;;;;;;;;;;;;;;;;;;5050997;28;19913;-71
2020/12/10 07:45:03;;;;;;;;;;;;;;;;;;5050950;28;19909;-71
2020/12/10 07:47:29;;;;;;;;;;;;;;;;;;5050725;28;19952;-70
2020/12/10 07:49:55;;;;;;;;;;;;;;;;;;5049510;28;20376;-71
2020/12/10 07:52:21;;;;;;;;;;;;;;;;;;5065254;28;19908;-71
2020/12/10 07:54:46;;;;;;;;;;;;;;;;;;5061389;28;19909;-71
2020/12/10 07:57:12;;;;;;;;;;;;;;;;;;5049691;28;19956;-70
2020/12/10 07:59:38;;;;;;;;;;;;;;;;;;5051062;28;20289;-69
2020/12/10 08:02:04;;;;;;;;;;;;;;;;;;5051278;28;19960;-70
2020/12/10 08:04:30;;;;;;;;;;;;;;;;;;5051106;28;19957;-71
2020/12/10 08:06:56;;;;;;;;;;;;;;;;;;5048281;28;20382;-70
2020/12/10 08:09:22;;;;;;;;;;;;;;;;;;5059675;28;19943;-71
2020/12/10 08:11:48;;;;;;;;;;;;;;;;;;5048699;28;20016;-69
2020/12/10 08:14:14;;;;;;;;;;;;;;;;;;5051081;28;19920;-70
2020/12/10 08:16:40;;;;;;;;;;;;;;;;;;5049798;28;19952;-70
2020/12/10 08:19:06;;;;;;;;;;;;;;;;;;5040075;28;19917;-69
2020/12/10 08:21:32;;;;;;;;;;;;;;;;;;5034278;28;19913;-70
2020/12/10 08:23:58;;;;;;;;;;;;;;;;;;5034956;28;20004;-71
2020/12/10 08:26:24;;;;;;;;;;;;;;;;;;5034908;28;19949;-70
2020/12/10 08:28:50;;;;;;;;;;;;;;;;;;5034987;28;20365;-70
2020/12/10 08:31:16;;;;;;;;;;;;;;;;;;5043096;28;19909;-70
2020/12/10 08:33:42;;;;;;;;;;;;;;;;;;5043808;28;19916;-70
2020/12/10 08:36:08;;;;;;;;;;;;;;;;;;5046720;28;19944;-70
2020/12/10 08:38:34;;;;;;;;;;;;;;;;;;5055087;28;19995;-70
2020/12/10 08:41:01;;;;;;;;;;;;;;;;;;5074361;28;19948;-70
2020/12/10 08:43:27;;;;;;;;;;;;;;;;;;5048182;28;20305;-70
2020/12/10 08:45:53;;;;;;;;;;;;;;;;;;5061026;28;19918;-70
2020/12/10 08:48:18;;;;;;;;;;;;;;;;;;5073887;28;19955;-70
2020/12/10 08:50:44;;;;;;;;;;;;;;;;;;5073863;28;20279;-70
2020/12/10 08:53:12;;;;;;;;;;;;;;;;;;5074089;28;19909;-70
2020/12/10 08:55:38;;;;;;;;;;;;;;;;;;5058641;28;19962;-70
2020/12/10 08:58:04;;;;;;;;;;;;;;;;;;5064565;28;19912;-70
2020/12/10 09:00:30;;;;;;;;;;;;;;;;;;5074573;28;20305;-70
2020/12/10 09:02:56;;;;;;;;;;;;;;;;;;5074103;28;20016;-70
2020/12/10 09:05:22;;;;;;;;;;;;;;;;;;5073745;28;19991;-70
2020/12/10 09:07:48;;;;;;;;;;;;;;;;;;5073641;28;19912;-70
2020/12/10 09:10:15;;;;;;;;;;;;;;;;;;5072382;28;20011;-71
2020/12/10 09:12:41;;;;;;;;;;;;;;;;;;5065974;28;19909;-70
2020/12/10 09:15:07;;;;;;;;;;;;;;;;;;5065597;28;19908;-71
2020/12/10 09:17:32;;;;;;;;;;;;;;;;;;5073557;28;19956;-70
2020/12/10 09:19:58;;;;;;;;;;;;;;;;;;5073471;28;19974;-70
2020/12/10 09:22:24;;;;;;;;;;;;;;;;;;5073546;28;20403;-70
2020/12/10 09:24:50;;;;;;;;;;;;;;;;;;5073688;28;19967;-71
2020/12/10 09:27:21;;;;;;;;;;;;;;;;;;5073243;28;19946;-70
2020/12/10 09:29:48;;;;;;;;;;;;;;;;;;5073284;28;19909;-71
2020/12/10 09:32:14;;;;;;;;;;;;;;;;;;5073245;28;19957;-70
2020/12/10 09:34:39;;;;;;;;;;;;;;;;;;5051666;28;20436;-70
2020/12/10 09:37:05;;;;;;;;;;;;;;;;;;5045692;28;19917;-70
2020/12/10 09:39:33;;;;;;;;;;;;;;;;;;5060208;28;19960;-70
2020/12/10 09:41:59;;;;;;;;;;;;;;;;;;5060592;28;19909;-70
2020/12/10 09:44:25;;;;;;;;;;;;;;;;;;5049920;28;19913;-70
2020/12/10 09:46:51;;;;;;;;;;;;;;;;;;5033350;28;19963;-70
2020/12/10 09:49:17;;;;;;;;;;;;;;;;;;5032140;28;19909;-70
2020/12/10 09:51:47;;;;;;;;;;;;;;;;;;5032906;28;19918;-70
2020/12/10 09:54:23;;;;;;;;;;;;;;;;;;5033298;28;19960;-70
2020/12/10 09:57:08;;;;;;;;;;;;;;;;;;5057063;28;19912;-70
2020/12/10 09:59:36;;;;;;;;;;;;;;;;;;5031592;28;20384;-71
2020/12/10 10:02:03;;;;;;;;;;;;;;;;;;5032859;28;19959;-70
2020/12/10 10:04:30;;;;;;;;;;;;;;;;;;5032985;28;19909;-70
2020/12/10 10:06:56;;;;;;;;;;;;;;;;;;5048780;28;19909;-69
2020/12/10 10:09:24;;;;;;;;;;;;;;;;;;5052354;28;19996;-70
2020/12/10 10:11:51;;;;;;;;;;;;;;;;;;5058230;28;19917;-70
2020/12/10 10:14:17;;;;;;;;;;;;;;;;;;5071602;28;19909;-70
2020/12/10 10:16:43;;;;;;;;;;;;;;;;;;5072339;28;20387;-70
2020/12/10 10:19:09;;;;;;;;;;;;;;;;;;5072168;28;19959;-70
2020/12/10 10:21:35;;;;;;;;;;;;;;;;;;5072245;28;19947;-70
2020/12/10 10:24:01;;;;;;;;;;;;;;;;;;5055487;28;20410;-70
2020/12/10 10:26:27;;;;;;;;;;;;;;;;;;5052244;28;19950;-70
2020/12/10 10:28:54;;;;;;;;;;;;;;;;;;5052127;28;19974;-70
2020/12/10 10:31:20;;;;;;;;;;;;;;;;;;5043944;28;19915;-70
2020/12/10 10:33:45;;;;;;;;;;;;;;;;;;5034586;28;20526;-69
2020/12/10 10:36:11;;;;;;;;;;;;;;;;;;5040840;28;19913;-69
2020/12/10 10:38:37;;;;;;;;;;;;;;;;;;5047991;28;19948;-70
2020/12/10 10:41:03;;;;;;;;;;;;;;;;;;5058854;28;19912;-70
2020/12/10 10:43:29;;;;;;;;;;;;;;;;;;5070527;28;20418;-70
2020/12/10 10:45:55;;;;;;;;;;;;;;;;;;5071802;28;19909;-70
2020/12/10 10:48:21;;;;;;;;;;;;;;;;;;5073686;28;20591;-70
2020/12/10 10:50:47;;;;;;;;;;;;;;;;;;5079363;28;19916;-71
2020/12/10 10:53:13;;;;;;;;;;;;;;;;;;5081040;28;19935;-70
2020/12/10 10:55:39;;;;;;;;;;;;;;;;;;5089016;28;20520;-70
2020/12/10 10:58:05;;;;;;;;;;;;;;;;;;5077209;28;19913;-69
2020/12/10 11:00:31;;;;;;;;;;;;;;;;;;5048316;28;19955;-69
2020/12/10 11:02:56;;;;;;;;;;;;;;;;;;5045987;28;20299;-70
2020/12/10 11:05:22;;;;;;;;;;;;;;;;;;5043440;28;19913;-70
2020/12/10 11:07:48;;;;;;;;;;;;;;;;;;5031470;28;19909;-70
2020/12/10 11:10:21;;;;;;;;;;;;;;;;;;5045529;28;19917;-70
2020/12/10 11:12:47;;;;;;;;;;;;;;;;;;5050385;28;19909;-69
2020/12/10 11:15:13;;;;;;;;;;;;;;;;;;5043044;28;20011;-69
2020/12/10 11:17:39;;;;;;;;;;;;;;;;;;5040730;28;20118;-70
2020/12/10 11:20:06;;;;;;;;;;;;;;;;;;5051588;28;19909;-69
2020/12/10 11:22:34;;;;;;;;;;;;;;;;;;5051461;28;19908;-70
2020/12/10 11:25:00;;;;;;;;;;;;;;;;;;5051180;28;19909;-70
2020/12/10 11:27:30;;;;;;;;;;;;;;;;;;5051455;28;20003;-69
2020/12/10 11:29:55;;;;;;;;;;;;;;;;;;5051437;28;19909;-69
2020/12/10 11:32:21;;;;;;;;;;;;;;;;;;5058838;28;19912;-70
2020/12/10 11:34:47;;;;;;;;;;;;;;;;;;5062372;28;19977;-70
2020/12/10 11:37:13;;;;;;;;;;;;;;;;;;5030080;28;20489;-69
2020/12/10 11:39:39;;;;;;;;;;;;;;;;;;5037593;28;19927;-70
2020/12/10 11:42:05;;;;;;;;;;;;;;;;;;5041930;28;19954;-70
2020/12/10 11:44:31;;;;;;;;;;;;;;;;;;5035323;28;20409;-70
2020/12/10 11:46:57;;;;;;;;;;;;;;;;;;5034091;28;19913;-70
2020/12/10 11:49:23;;;;;;;;;;;;;;;;;;5036652;28;19913;-70
2020/12/10 11:51:49;;;;;;;;;;;;;;;;;;5031117;28;19909;-70
2020/12/10 11:54:14;;;;;;;;;;;;;;;;;;5035196;28;19921;-70
2020/12/10 11:56:40;;;;;;;;;;;;;;;;;;5037903;28;19979;-70
2020/12/10 11:59:06;;;;;;;;;;;;;;;;;;5035239;28;19960;-69
2020/12/10 12:01:32;;;;;;;;;;;;;;;;;;5035447;28;19916;-70
2020/12/10 12:03:58;;;;;;;;;;;;;;;;;;5045261;28;19959;-70
2020/12/10 12:06:24;;;;;;;;;;;;;;;;;;5052539;28;19916;-69
2020/12/10 12:08:50;;;;;;;;;;;;;;;;;;5038121;28;19913;-70
2020/12/10 12:11:16;;;;;;;;;;;;;;;;;;5062037;28;19931;-70
2020/12/10 12:13:42;;;;;;;;;;;;;;;;;;5044206;28;19913;-69
2020/12/10 12:16:08;;;;;;;;;;;;;;;;;;5044698;28;19938;-70
2020/12/10 12:18:34;;;;;;;;;;;;;;;;;;5036172;28;19944;-69
2020/12/10 12:21:00;;;;;;;;;;;;;;;;;;5040489;28;19948;-70
2020/12/10 12:23:26;;;;;;;;;;;;;;;;;;5034573;28;19909;-70
2020/12/10 12:25:52;;;;;;;;;;;;;;;;;;5034438;28;19931;-69
2020/12/10 12:28:18;;;;;;;;;;;;;;;;;;5034325;28;20014;-69
2020/12/10 12:30:43;;;;;;;;;;;;;;;;;;5034621;28;20395;-70
2020/12/10 12:33:09;;;;;;;;;;;;;;;;;;5034129;28;20039;-70
2020/12/10 12:35:35;;;;;;;;;;;;;;;;;;5033644;28;19949;-69
2020/12/10 12:38:03;;;;;;;;;;;;;;;;;;5032431;28;19999;-70
2020/12/10 12:40:29;;;;;;;;;;;;;;;;;;5056588;28;20013;-69
2020/12/10 12:42:57;;;;;;;;;;;;;;;;;;5070154;28;20007;-69
2020/12/10 12:45:22;;;;;;;;;;;;;;;;;;5074366;28;19999;-69
2020/12/10 12:47:48;;;;;;;;;;;;;;;;;;5074159;28;20000;-69
2020/12/10 12:50:14;;;;;;;;;;;;;;;;;;5074561;28;20336;-69
2020/12/10 12:52:40;;;;;;;;;;;;;;;;;;5074229;28;19951;-69
2020/12/10 12:55:06;;;;;;;;;;;;;;;;;;5073886;28;19951;-69
2020/12/10 12:57:32;;;;;;;;;;;;;;;;;;5073856;28;20011;-70
2020/12/10 12:59:58;;;;;;;;;;;;;;;;;;5074045;28;19916;-69
2020/12/10 13:02:24;;;;;;;;;;;;;;;;;;5051339;28;19908;-69
2020/12/10 13:04:50;;;;;;;;;;;;;;;;;;5033560;28;19960;-69
2020/12/10 13:07:16;;;;;;;;;;;;;;;;;;5038008;28;19913;-69
2020/12/10 13:09:43;;;;;;;;;;;;;;;;;;5048325;28;19982;-69
2020/12/10 13:12:09;;;;;;;;;;;;;;;;;;5058890;28;20280;-69
2020/12/10 13:14:34;;;;;;;;;;;;;;;;;;5041162;28;19914;-68
2020/12/10 13:17:00;;;;;;;;;;;;;;;;;;5042120;28;19913;-68
2020/12/10 13:19:26;;;;;;;;;;;;;;;;;;5042883;28;19955;-68
2020/12/10 13:21:52;;;;;;;;;;;;;;;;;;5037445;28;20089;-68
2020/12/10 13:24:18;;;;;;;;;;;;;;;;;;5043858;28;20011;-69
2020/12/10 13:26:46;;;;;;;;;;;;;;;;;;5044253;28;20297;-69
2020/12/10 13:29:12;;;;;;;;;;;;;;;;;;5045759;28;20295;-70
2020/12/10 13:31:38;;;;;;;;;;;;;;;;;;5053295;28;20008;-69
2020/12/10 13:34:04;;;;;;;;;;;;;;;;;;5049218;28;19987;-69
2020/12/10 13:36:30;;;;;;;;;;;;;;;;;;5042875;28;19917;-69
2020/12/10 13:38:55;;;;;;;;;;;;;;;;;;5043334;28;20432;-70
2020/12/10 13:41:21;;;;;;;;;;;;;;;;;;5053229;28;19912;-69
2020/12/10 13:43:47;;;;;;;;;;;;;;;;;;5043193;28;20316;-69
2020/12/10 13:46:13;;;;;;;;;;;;;;;;;;5037218;28;20008;-68
2020/12/10 13:48:39;;;;;;;;;;;;;;;;;;5042158;28;20012;-69
2020/12/10 13:51:05;;;;;;;;;;;;;;;;;;5046578;28;19916;-69
2020/12/10 13:53:31;;;;;;;;;;;;;;;;;;5052991;28;19913;-70
2020/12/10 13:55:57;;;;;;;;;;;;;;;;;;5052841;28;19909;-69
2020/12/10 13:58:23;;;;;;;;;;;;;;;;;;5053008;28;19936;-69
2020/12/10 14:00:49;;;;;;;;;;;;;;;;;;5053467;28;19909;-70
2020/12/10 14:03:15;;;;;;;;;;;;;;;;;;5051402;28;19963;-70
2020/12/10 14:05:41;;;;;;;;;;;;;;;;;;5053092;28;19960;-69
2020/12/10 14:08:07;;;;;;;;;;;;;;;;;;5052661;28;19948;-70
2020/12/10 14:10:33;;;;;;;;;;;;;;;;;;5044186;28;19917;-69
2020/12/10 14:12:59;;;;;;;;;;;;;;;;;;5052612;28;19948;-69
2020/12/10 14:15:24;;;;;;;;;;;;;;;;;;5052390;28;19909;-70
2020/12/10 14:17:50;;;;;;;;;;;;;;;;;;5051737;28;20239;-70
2020/12/10 14:20:19;;;;;;;;;;;;;;;;;;5049977;28;19962;-70
2020/12/10 14:22:45;;;;;;;;;;;;;;;;;;5040378;28;19996;-70
2020/12/10 14:25:11;;;;;;;;;;;;;;;;;;5030940;28;19945;-70
2020/12/10 14:27:37;;;;;;;;;;;;;;;;;;5032410;28;19916;-68
2020/12/10 14:30:03;;;;;;;;;;;;;;;;;;5037452;28;19955;-69
2020/12/10 14:32:29;;;;;;;;;;;;;;;;;;5041060;28;20447;-70
2020/12/10 14:34:54;;;;;;;;;;;;;;;;;;5031319;28;20002;-70
2020/12/10 14:37:21;;;;;;;;;;;;;;;;;;5032343;28;20131;-69
2020/12/10 14:39:47;;;;;;;;;;;;;;;;;;5045769;28;19908;-70
2020/12/10 14:42:13;;;;;;;;;;;;;;;;;;5062025;28;19993;-69
2020/12/10 14:44:39;;;;;;;;;;;;;;;;;;5070771;28;19908;-70
2020/12/10 14:47:05;;;;;;;;;;;;;;;;;;5070387;28;20395;-70
2020/12/10 14:49:30;;;;;;;;;;;;;;;;;;5070370;28;19958;-69
2020/12/10 14:51:57;;;;;;;;;;;;;;;;;;5057099;28;19956;-70
2020/12/10 14:54:22;;;;;;;;;;;;;;;;;;5032119;28;19913;-70
2020/12/10 14:56:48;;;;;;;;;;;;;;;;;;5031872;28;20654;-69
2020/12/10 14:59:14;;;;;;;;;;;;;;;;;;5030509;28;20072;-70
2020/12/10 15:01:40;;;;;;;;;;;;;;;;;;5031798;28;19909;-69
2020/12/10 15:04:06;;;;;;;;;;;;;;;;;;5031749;28;19956;-69
2020/12/10 15:06:32;;;;;;;;;;;;;;;;;;5040205;28;20338;-70
2020/12/10 15:08:58;;;;;;;;;;;;;;;;;;5043032;28;19912;-70
2020/12/10 15:11:24;;;;;;;;;;;;;;;;;;5049807;28;20007;-69
2020/12/10 15:13:50;;;;;;;;;;;;;;;;;;5040772;28;20447;-69
2020/12/10 15:16:16;;;;;;;;;;;;;;;;;;5041847;28;19952;-70
2020/12/10 15:18:42;;;;;;;;;;;;;;;;;;5041018;28;20388;-70
2020/12/10 15:21:08;;;;;;;;;;;;;;;;;;5040038;28;20043;-69
2020/12/10 15:23:34;;;;;;;;;;;;;;;;;;5039853;28;19992;-68
2020/12/10 15:26:00;;;;;;;;;;;;;;;;;;5040607;28;20347;-69
2020/12/10 15:28:26;;;;;;;;;;;;;;;;;;5041201;28;19917;-69
2020/12/10 15:30:52;;;;;;;;;;;;;;;;;;5045368;28;20008;-70
2020/12/10 15:33:18;;;;;;;;;;;;;;;;;;5051438;28;20012;-69
2020/12/10 15:35:43;;;;;;;;;;;;;;;;;;5051852;28;19915;-69
2020/12/10 15:38:09;;;;;;;;;;;;;;;;;;5057211;28;20429;-69
2020/12/10 15:40:35;;;;;;;;;;;;;;;;;;5064616;28;19947;-70
2020/12/10 15:43:01;;;;;;;;;;;;;;;;;;5071305;28;19959;-68
2020/12/10 15:45:27;;;;;;;;;;;;;;;;;;5071048;28;19946;-69
2020/12/10 15:47:53;;;;;;;;;;;;;;;;;;5070039;28;19908;-69
2020/12/10 15:50:19;;;;;;;;;;;;;;;;;;5071403;28;19909;-69
2020/12/10 15:52:45;;;;;;;;;;;;;;;;;;5071173;28;19909;-69
2020/12/10 15:55:11;;;;;;;;;;;;;;;;;;5070865;28;19912;-69
2020/12/10 15:57:39;;;;;;;;;;;;;;;;;;5070857;28;20007;-71
2020/12/10 16:00:04;;;;;;;;;;;;;;;;;;5071273;28;19908;-71
2020/12/10 16:02:30;;;;;;;;;;;;;;;;;;5071124;28;19912;-69
2020/12/10 16:04:56;;;;;;;;;;;;;;;;;;5071051;28;19997;-69
2020/12/10 16:07:22;;;;;;;;;;;;;;;;;;5069066;28;20029;-70
2020/12/10 16:09:48;;;;;;;;;;;;;;;;;;5061513;28;20004;-69
2020/12/10 16:12:14;;;;;;;;;;;;;;;;;;5062248;28;19931;-69
2020/12/10 16:14:40;;;;;;;;;;;;;;;;;;5071101;28;20019;-69
2020/12/10 16:17:06;;;;;;;;;;;;;;;;;;5037027;28;19968;-70
2020/12/10 16:19:32;;;;;;;;;;;;;;;;;;5049371;28;19962;-68
2020/12/10 16:21:57;;;;;;;;;;;;;;;;;;5044095;28;19978;-69
2020/12/10 16:24:23;;;;;;;;;;;;;;;;;;5033885;28;20285;-69
2020/12/10 16:26:49;;;;;;;;;;;;;;;;;;5039632;28;19952;-69
2020/12/10 16:29:15;;;;;;;;;;;;;;;;;;5041211;28;20027;-69
2020/12/10 16:31:41;;;;;;;;;;;;;;;;;;5041788;28;20319;-69
2020/12/10 16:34:07;;;;;;;;;;;;;;;;;;5040295;28;19912;-69
2020/12/10 16:36:33;;;;;;;;;;;;;;;;;;5039636;28;19963;-69
2020/12/10 16:38:59;;;;;;;;;;;;;;;;;;5050679;28;20066;-68